Time;durP1;ratioP1;P1;durP2;ratioP2;P2;SDS_P1;SDS_P2;PMS_P1;PMS_P2;Temp;Humidity;BMP_temperature;BMP_pressure;BME280_temperature;BME280_humidity;BME280_pressure;Samples;Min_cycle;Max_cycle;Signal;HPM_P1;HPM_P2
2021/04/16 00:00:44;;;;;;;11.97;7.63;;;3.60;99.90;;;;;;4208744;28;20455;-65
2021/04/16 00:02:45;;;;;;;11.63;8.17;;;3.60;99.90;;;;;;4209754;28;20269;-64
2021/04/16 00:04:46;;;;;;;13.50;8.80;;;3.60;99.90;;;;;;4208899;28;20318;-67
2021/04/16 00:06:48;;;;;;;13.90;8.43;;;3.60;99.90;;;;;;4209777;28;20764;-65
2021/04/16 00:08:49;;;;;;;13.97;9.50;;;3.50;99.90;;;;;;4222356;28;20284;-66
2021/04/16 00:10:54;;;;;;;15.97;9.27;;;3.50;99.90;;;;;;4226902;27;20345;-63
2021/04/16 00:12:56;;;;;;;12.57;8.30;;;3.50;99.90;;;;;;4225165;28;20898;-67
2021/04/16 00:14:57;;;;;;;13.67;8.53;;;3.50;99.90;;;;;;4226801;28;20276;-62
2021/04/16 00:16:59;;;;;;;13.50;8.60;;;3.40;99.90;;;;;;4222917;28;20304;-64
2021/04/16 00:19:00;;;;;;;16.20;8.77;;;3.40;99.90;;;;;;4226582;28;20272;-63
2021/04/16 00:21:01;;;;;;;17.07;9.53;;;3.40;99.90;;;;;;4225196;28;20276;-63
2021/04/16 00:23:03;;;;;;;12.77;8.30;;;3.40;99.90;;;;;;4224999;28;20280;-65
2021/04/16 00:25:08;;;;;;;11.90;7.57;;;3.40;99.90;;;;;;4225245;28;20630;-62
2021/04/16 00:27:10;;;;;;;13.17;8.33;;;3.40;99.90;;;;;;4225564;27;20317;-66
2021/04/16 00:29:11;;;;;;;10.87;7.37;;;3.40;99.90;;;;;;4225174;28;20272;-63
2021/04/16 00:31:17;;;;;;;11.37;7.17;;;3.50;99.90;;;;;;4226024;28;20781;-64
2021/04/16 00:33:19;;;;;;;11.00;7.17;;;3.40;99.90;;;;;;4224522;28;20703;-63
2021/04/16 00:35:20;;;;;;;12.07;6.73;;;3.50;99.90;;;;;;4225842;28;20337;-63
2021/04/16 00:37:21;;;;;;;10.67;7.53;;;3.50;99.90;;;;;;4225934;28;20260;-63
2021/04/16 00:39:24;;;;;;;10.33;6.70;;;3.50;99.90;;;;;;4224127;28;20349;-63
2021/04/16 00:41:28;;;;;;;10.53;6.80;;;3.50;99.90;;;;;;4222388;28;20256;-63
2021/04/16 00:43:33;;;;;;;12.20;7.27;;;3.50;99.90;;;;;;4208123;28;20647;-62
2021/04/16 00:45:36;;;;;;;16.03;8.90;;;3.50;99.90;;;;;;4209687;28;20261;-62
2021/04/16 00:47:37;;;;;;;13.93;8.10;;;3.40;99.90;;;;;;4208088;28;20296;-65
2021/04/16 00:49:43;;;;;;;18.63;9.10;;;3.40;99.90;;;;;;4209256;28;20269;-64
2021/04/16 00:51:48;;;;;;;12.17;8.43;;;3.40;99.90;;;;;;4208067;28;20334;-66
2021/04/16 00:53:50;;;;;;;15.13;9.13;;;3.40;99.90;;;;;;4209576;28;20261;-60
2021/04/16 00:55:52;;;;;;;13.30;8.63;;;3.40;99.90;;;;;;4208468;28;20329;-62
2021/04/16 00:57:53;;;;;;;15.47;9.80;;;3.50;99.90;;;;;;4209215;28;20751;-66
2021/04/16 00:59:57;;;;;;;16.70;10.10;;;3.50;99.90;;;;;;4207796;28;20265;-63
2021/04/16 01:02:00;;;;;;;18.13;10.67;;;3.50;99.90;;;;;;4209191;28;20264;-63
2021/04/16 01:04:01;;;;;;;18.23;9.97;;;3.50;99.90;;;;;;4207344;28;20273;-63
2021/04/16 01:06:06;;;;;;;20.97;11.57;;;3.50;99.90;;;;;;4208279;28;20268;-67
2021/04/16 01:08:09;;;;;;;17.60;11.43;;;3.50;99.90;;;;;;4207361;28;20664;-63
2021/04/16 01:10:13;;;;;;;16.90;10.70;;;3.50;99.90;;;;;;4208417;28;20616;-67
2021/04/16 01:12:15;;;;;;;19.13;11.37;;;3.50;99.90;;;;;;4208093;28;20252;-63
2021/04/16 01:14:17;;;;;;;18.93;11.17;;;3.50;99.90;;;;;;4207723;28;20273;-63
2021/04/16 01:16:18;;;;;;;17.73;10.47;;;3.50;99.90;;;;;;4208327;28;20671;-63
2021/04/16 01:18:23;;;;;;;19.57;9.73;;;3.40;99.90;;;;;;4207147;28;20276;-66
2021/04/16 01:20:30;;;;;;;18.17;9.50;;;3.40;99.90;;;;;;4208309;28;20320;-62
2021/04/16 01:22:36;;;;;;;13.60;8.93;;;3.40;99.90;;;;;;4207247;28;20264;-61
2021/04/16 01:24:37;;;;;;;14.77;9.20;;;3.40;99.90;;;;;;4208602;28;20765;-64
2021/04/16 01:26:39;;;;;;;13.07;8.10;;;3.40;99.90;;;;;;4207410;28;20285;-63
2021/04/16 01:28:40;;;;;;;15.40;8.53;;;3.40;99.90;;;;;;4208493;28;20334;-63
2021/04/16 01:31:04;;;;;;;14.23;8.80;;;3.40;99.90;;;;;;4207039;28;20330;-63
2021/04/16 01:33:05;;;;;;;14.23;8.13;;;3.40;99.90;;;;;;4208397;28;20276;-62
2021/04/16 01:35:10;;;;;;;13.30;7.70;;;3.40;99.90;;;;;;4207338;28;20281;-62
2021/04/16 01:37:12;;;;;;;15.53;9.43;;;3.40;99.90;;;;;;4208780;28;20268;-63
2021/04/16 01:39:13;;;;;;;14.03;8.20;;;3.40;99.90;;;;;;4205984;28;20346;-61
2021/04/16 01:41:16;;;;;;;15.53;8.50;;;3.40;99.90;;;;;;4225316;28;21132;-62
2021/04/16 01:43:38;;;;;;;14.73;8.57;;;3.40;99.90;;;;;;4222995;28;20268;-66
2021/04/16 01:45:40;;;;;;;16.17;7.83;;;3.40;99.90;;;;;;4222939;28;20267;-62
2021/04/16 01:47:41;;;;;;;15.23;8.30;;;3.40;99.90;;;;;;4223871;28;20304;-63
2021/04/16 01:49:46;;;;;;;16.07;8.63;;;3.40;99.90;;;;;;4225271;28;20681;-65
2021/04/16 01:51:48;;;;;;;13.83;8.50;;;3.30;99.90;;;;;;4222810;28;20276;-62
2021/04/16 01:54:03;;;;;;;14.80;8.20;;;3.30;99.90;;;;;;4224867;28;20256;-62
2021/04/16 01:56:05;;;;;;;14.50;8.07;;;3.40;99.90;;;;;;4223414;28;20682;-62
2021/04/16 01:58:06;;;;;;;14.97;8.07;;;3.40;99.90;;;;;;4224173;28;20670;-62
2021/04/16 02:00:19;;;;;;;15.47;8.80;;;3.40;99.90;;;;;;4222837;28;20335;-63
2021/04/16 02:02:30;;;;;;;15.60;9.27;;;3.40;99.90;;;;;;4223806;28;20276;-66
2021/04/16 02:04:32;;;;;;;13.82;9.00;;;3.40;99.90;;;;;;4222821;28;20251;-60
2021/04/16 02:06:34;;;;;;;15.23;9.10;;;3.30;99.90;;;;;;4224292;28;20085;-62
2021/04/16 02:08:35;;;;;;;15.97;9.50;;;3.40;99.90;;;;;;4223362;28;20264;-62
2021/04/16 02:10:36;;;;;;;14.47;8.67;;;3.30;99.90;;;;;;4223664;28;20336;-62
2021/04/16 02:12:38;;;;;;;15.50;9.67;;;3.30;99.90;;;;;;4223579;28;20329;-62
2021/04/16 02:14:40;;;;;;;13.93;9.27;;;3.30;99.90;;;;;;4222605;28;21038;-64
2021/04/16 02:16:47;;;;;;;14.77;9.87;;;3.30;99.90;;;;;;4223906;28;20625;-63
2021/04/16 02:18:50;;;;;;;17.10;9.90;;;3.30;99.90;;;;;;4223297;28;20268;-64
2021/04/16 02:20:51;;;;;;;17.17;9.83;;;3.20;99.90;;;;;;4224661;28;20346;-62
2021/04/16 02:22:53;;;;;;;14.13;9.37;;;3.20;99.90;;;;;;4206671;28;20276;-62
2021/04/16 02:24:55;;;;;;;14.07;9.60;;;3.30;99.90;;;;;;4207635;28;20264;-64
2021/04/16 02:26:56;;;;;;;14.97;9.03;;;3.30;99.90;;;;;;4206410;28;20292;-63
2021/04/16 02:28:57;;;;;;;16.33;9.37;;;3.30;99.90;;;;;;4207031;28;20330;-63
2021/04/16 02:30:58;;;;;;;16.67;10.13;;;3.30;99.90;;;;;;4205663;28;20748;-62
2021/04/16 02:33:00;;;;;;;17.83;9.97;;;3.30;99.90;;;;;;4207553;28;20276;-61
2021/04/16 02:35:01;;;;;;;16.33;9.57;;;3.40;99.90;;;;;;4206678;28;20744;-64
2021/04/16 02:37:07;;;;;;;17.80;10.30;;;3.40;99.90;;;;;;4207294;28;20265;-61
2021/04/16 02:39:08;;;;;;;16.77;10.47;;;3.30;99.90;;;;;;4206751;28;20590;-65
2021/04/16 02:41:09;;;;;;;16.27;10.13;;;3.30;99.90;;;;;;4207138;28;20326;-64
2021/04/16 02:43:11;;;;;;;15.57;9.40;;;3.30;99.90;;;;;;4206375;28;20253;-65
2021/04/16 02:45:14;;;;;;;15.10;9.40;;;3.30;99.90;;;;;;4206719;28;20273;-63
2021/04/16 02:47:15;;;;;;;17.70;9.57;;;3.30;99.90;;;;;;4206664;28;20630;-62
2021/04/16 02:49:17;;;;;;;17.60;9.73;;;3.30;99.90;;;;;;4206701;28;20264;-63
2021/04/16 02:51:18;;;;;;;18.50;10.10;;;3.20;99.90;;;;;;4206930;28;20269;-63
2021/04/16 02:53:20;;;;;;;17.43;10.67;;;3.20;99.90;;;;;;4205917;28;20261;-66
2021/04/16 02:55:21;;;;;;;18.70;10.50;;;3.20;99.90;;;;;;4207576;28;20253;-64
2021/04/16 02:57:24;;;;;;;19.13;10.73;;;3.10;99.90;;;;;;4205601;28;20256;-64
2021/04/16 02:59:27;;;;;;;18.07;10.13;;;3.10;99.90;;;;;;4207392;28;20268;-63
2021/04/16 03:01:28;;;;;;;19.07;10.73;;;3.10;99.90;;;;;;4205925;28;20264;-63
2021/04/16 03:03:29;;;;;;;16.23;9.73;;;3.10;99.90;;;;;;4206970;28;20322;-63
2021/04/16 03:05:31;;;;;;;17.90;9.90;;;3.10;99.90;;;;;;4205970;28;20306;-66
2021/04/16 03:07:32;;;;;;;15.83;9.17;;;3.20;99.90;;;;;;4205604;28;20314;-64
2021/04/16 03:09:33;;;;;;;17.43;9.93;;;3.20;99.90;;;;;;4218709;28;20267;-63
2021/04/16 03:11:34;;;;;;;18.23;10.43;;;3.20;99.90;;;;;;4223755;28;20310;-66
2021/04/16 03:13:36;;;;;;;16.63;9.80;;;3.20;99.90;;;;;;4222697;28;20743;-67
2021/04/16 03:15:38;;;;;;;18.33;10.07;;;3.20;99.90;;;;;;4212939;28;20338;-61
2021/04/16 03:17:39;;;;;;;18.57;10.60;;;3.20;99.90;;;;;;4205948;28;20590;-59
2021/04/16 03:19:40;;;;;;;24.27;11.53;;;3.20;99.90;;;;;;4206584;28;20269;-64
2021/04/16 03:21:41;;;;;;;21.10;11.13;;;3.20;99.90;;;;;;4211916;28;21007;-63
2021/04/16 03:23:42;;;;;;;18.57;11.33;;;3.20;99.90;;;;;;4222609;28;20344;-62
2021/04/16 03:25:44;;;;;;;17.50;10.83;;;3.20;99.90;;;;;;4223982;28;20264;-65
2021/04/16 03:27:45;;;;;;;19.13;11.30;;;3.20;99.90;;;;;;4224211;28;20790;-63
2021/04/16 03:29:46;;;;;;;21.60;11.23;;;3.20;99.90;;;;;;4224823;28;20275;-63
2021/04/16 03:31:47;;;;;;;15.00;10.50;;;3.30;99.90;;;;;;4225050;28;20284;-67
2021/04/16 03:33:48;;;;;;;19.73;10.60;;;3.30;99.90;;;;;;4227091;28;20267;-64
2021/04/16 03:35:49;;;;;;;15.57;9.50;;;3.30;99.90;;;;;;4225955;28;20333;-66
2021/04/16 03:37:51;;;;;;;18.63;11.60;;;3.30;99.90;;;;;;4227204;28;20314;-63
2021/04/16 03:39:52;;;;;;;18.17;11.70;;;3.30;99.90;;;;;;4225816;28;20260;-63
2021/04/16 03:41:53;;;;;;;20.63;12.13;;;3.30;99.90;;;;;;4226851;28;20264;-67
2021/04/16 03:43:55;;;;;;;17.03;10.70;;;3.30;99.90;;;;;;4225755;28;21089;-63
2021/04/16 03:45:56;;;;;;;22.10;11.67;;;3.30;99.90;;;;;;4226284;28;20264;-65
2021/04/16 03:47:57;;;;;;;17.17;10.77;;;3.30;99.90;;;;;;4225194;28;20360;-65
2021/04/16 03:49:58;;;;;;;20.73;11.27;;;3.30;99.90;;;;;;4218848;28;20333;-63
2021/04/16 03:52:02;;;;;;;20.40;11.83;;;3.30;99.90;;;;;;4211841;28;20315;-66
2021/04/16 03:54:03;;;;;;;21.10;11.77;;;3.30;99.90;;;;;;4217727;28;20268;-66
2021/04/16 03:56:07;;;;;;;23.80;13.70;;;3.30;99.90;;;;;;4226558;28;20793;-65
2021/04/16 03:58:11;;;;;;;21.33;12.30;;;3.30;99.90;;;;;;4225395;28;20741;-65
2021/04/16 04:00:16;;;;;;;22.57;12.57;;;3.30;99.90;;;;;;4224294;28;21498;-62
2021/04/16 04:02:17;;;;;;;23.03;12.27;;;3.20;99.90;;;;;;4214492;28;20318;-62
2021/04/16 04:04:19;;;;;;;22.97;11.27;;;3.20;99.90;;;;;;4209651;28;20281;-64
2021/04/16 04:06:20;;;;;;;22.37;11.50;;;3.20;99.90;;;;;;4207945;28;20269;-62
2021/04/16 04:08:23;;;;;;;23.67;11.83;;;3.20;99.90;;;;;;4213205;28;20817;-62
2021/04/16 04:10:24;;;;;;;20.30;11.53;;;3.30;99.90;;;;;;4220737;28;20272;-63
2021/04/16 04:12:25;;;;;;;22.47;12.30;;;3.30;99.90;;;;;;4216222;28;21169;-63
2021/04/16 04:14:26;;;;;;;18.73;10.80;;;3.30;99.90;;;;;;4224867;28;20272;-62
2021/04/16 04:16:28;;;;;;;20.23;12.07;;;3.30;99.90;;;;;;4209891;28;20786;-62
2021/04/16 04:18:31;;;;;;;18.37;10.93;;;3.20;99.90;;;;;;4207984;28;20318;-62
2021/04/16 04:20:34;;;;;;;19.90;11.70;;;3.20;99.90;;;;;;4210264;28;20322;-63
2021/04/16 04:22:37;;;;;;;17.77;11.40;;;3.30;99.90;;;;;;4209037;28;20841;-61
2021/04/16 04:24:38;;;;;;;20.93;11.63;;;3.30;99.90;;;;;;4214376;28;20268;-61
2021/04/16 04:26:40;;;;;;;19.73;10.50;;;3.30;99.90;;;;;;4216051;28;20260;-60
2021/04/16 04:28:42;;;;;;;20.77;11.87;;;3.30;99.90;;;;;;4207693;28;20308;-62
2021/04/16 04:30:44;;;;;;;16.93;10.73;;;3.30;99.90;;;;;;4208917;28;20745;-62
2021/04/16 04:32:45;;;;;;;19.77;11.33;;;3.40;99.90;;;;;;4210851;28;20256;-62
2021/04/16 04:34:46;;;;;;;21.07;11.80;;;3.40;99.90;;;;;;4217913;28;20667;-63
2021/04/16 04:36:51;;;;;;;27.50;11.23;;;3.40;99.90;;;;;;4207659;28;20314;-65
2021/04/16 04:38:53;;;;;;;19.37;10.67;;;3.50;99.90;;;;;;4217117;28;20260;-62
2021/04/16 04:40:54;;;;;;;19.93;12.00;;;3.50;99.90;;;;;;4224589;28;20927;-60
2021/04/16 04:42:55;;;;;;;18.20;11.30;;;3.50;99.90;;;;;;4224733;28;20658;-61
2021/04/16 04:44:57;;;;;;;24.20;12.37;;;3.50;99.90;;;;;;4223787;28;20341;-61
2021/04/16 04:46:58;;;;;;;18.27;11.70;;;3.50;99.90;;;;;;4225743;28;20272;-61
2021/04/16 04:48:59;;;;;;;20.80;11.73;;;3.60;99.90;;;;;;4224052;28;20325;-61
2021/04/16 04:51:00;;;;;;;18.63;11.70;;;3.60;99.90;;;;;;4224826;28;20357;-62
2021/04/16 04:53:01;;;;;;;20.23;11.43;;;3.70;99.90;;;;;;4220033;28;20264;-61
2021/04/16 04:55:13;;;;;;;17.57;10.97;;;3.70;99.90;;;;;;4207669;28;20261;-61
2021/04/16 04:57:16;;;;;;;19.63;12.23;;;3.80;99.90;;;;;;4207356;28;20277;-61
2021/04/16 04:59:17;;;;;;;15.60;10.60;;;3.90;99.90;;;;;;4207554;28;20699;-63
2021/04/16 05:01:18;;;;;;;23.37;11.67;;;3.90;99.90;;;;;;4206603;28;20286;-61
2021/04/16 05:03:19;;;;;;;17.23;10.80;;;3.90;99.90;;;;;;4211097;28;20422;-60
2021/04/16 05:05:22;;;;;;;16.20;10.83;;;4.00;99.90;;;;;;4223261;28;20272;-60
2021/04/16 05:07:23;;;;;;;16.77;10.60;;;4.00;99.90;;;;;;4222073;28;20285;-61
2021/04/16 05:09:24;;;;;;;16.90;10.47;;;4.10;99.90;;;;;;4223846;28;20268;-61
2021/04/16 05:11:25;;;;;;;22.27;10.40;;;4.20;99.90;;;;;;4222795;28;20268;-61
2021/04/16 05:13:27;;;;;;;16.57;10.73;;;4.20;99.90;;;;;;4224429;28;20819;-62
2021/04/16 05:15:28;;;;;;;43.70;25.40;;;4.20;99.90;;;;;;4221559;28;20272;-64
2021/04/16 05:17:29;;;;;;;30.77;17.73;;;4.30;99.90;;;;;;4224431;28;21029;-61
2021/04/16 05:19:30;;;;;;;27.53;15.50;;;4.40;99.90;;;;;;4224214;28;20268;-60
2021/04/16 05:21:34;;;;;;;25.47;13.33;;;4.40;99.90;;;;;;4225490;28;20341;-61
2021/04/16 05:23:35;;;;;;;19.53;12.33;;;4.50;99.90;;;;;;4224262;28;20288;-61
2021/04/16 05:25:36;;;;;;;19.13;12.37;;;4.50;99.90;;;;;;4225036;28;20268;-60
2021/04/16 05:27:37;;;;;;;22.20;13.10;;;4.60;99.90;;;;;;4223826;28;20292;-60
2021/04/16 05:29:38;;;;;;;21.50;12.97;;;4.80;99.90;;;;;;4224933;28;20275;-59
2021/04/16 05:31:39;;;;;;;19.13;12.40;;;5.00;99.90;;;;;;4215077;28;20252;-64
2021/04/16 05:33:40;;;;;;;20.57;12.57;;;5.10;99.90;;;;;;4218364;28;20268;-64
2021/04/16 05:35:41;;;;;;;24.40;13.30;;;5.20;99.90;;;;;;4207939;28;20264;-63
2021/04/16 05:37:43;;;;;;;24.27;13.30;;;5.40;99.90;;;;;;4205483;28;20245;-62
2021/04/16 05:39:44;;;;;;;25.67;14.30;;;6.10;99.90;;;;;;4207375;28;20826;-61
2021/04/16 05:41:46;;;;;;;23.50;12.70;;;6.80;99.90;;;;;;4206809;28;20276;-65
2021/04/16 05:43:48;;;;;;;20.67;12.40;;;7.50;99.90;;;;;;4207988;28;20318;-62
2021/04/16 05:45:49;;;;;;;23.67;13.97;;;8.20;99.90;;;;;;4206833;28;20273;-62
2021/04/16 05:47:50;;;;;;;21.40;12.17;;;9.00;99.90;;;;;;4208119;28;20100;-64
2021/04/16 05:49:52;;;;;;;21.37;12.20;;;9.60;99.90;;;;;;4206489;28;20028;-66
2021/04/16 05:51:54;;;;;;;22.40;11.60;;;10.40;99.90;;;;;;4207157;28;20032;-61
2021/04/16 05:53:56;;;;;;;20.40;11.43;;;11.30;99.90;;;;;;4205975;28;20043;-64
2021/04/16 05:55:58;;;;;;;17.43;10.97;;;11.40;99.90;;;;;;4221860;28;20112;-63
2021/04/16 05:57:59;;;;;;;15.17;9.63;;;11.30;99.90;;;;;;4223183;28;20027;-61
2021/04/16 06:00:00;;;;;;;17.87;9.80;;;11.20;99.90;;;;;;4224603;28;20464;-65
2021/04/16 06:02:02;;;;;;;14.23;10.47;;;10.90;99.90;;;;;;4223384;28;20051;-66
2021/04/16 06:04:04;;;;;;;17.80;10.60;;;10.70;99.90;;;;;;4224217;28;20081;-64
2021/04/16 06:06:05;;;;;;;16.63;10.50;;;10.50;99.90;;;;;;4223507;28;20097;-64
2021/04/16 06:08:06;;;;;;;18.03;10.50;;;10.00;99.90;;;;;;4218173;28;20487;-67
2021/04/16 06:10:09;;;;;;;16.10;10.93;;;9.50;99.90;;;;;;4224828;28;20023;-66
2021/04/16 06:12:11;;;;;;;20.87;11.77;;;9.30;99.90;;;;;;4218421;28;20113;-62
2021/04/16 06:14:13;;;;;;;13.07;8.50;;;9.40;99.90;;;;;;4209912;28;20024;-61
2021/04/16 06:16:14;;;;;;;12.03;8.77;;;9.40;99.90;;;;;;4214317;28;20090;-62
2021/04/16 06:18:15;;;;;;;12.43;8.07;;;9.50;99.90;;;;;;4215984;28;20462;-66
2021/04/16 06:20:20;;;;;;;11.50;8.50;;;9.50;99.90;;;;;;4215428;28;20036;-63
2021/04/16 06:22:21;;;;;;;15.67;9.50;;;9.40;99.90;;;;;;4214996;28;20051;-63
2021/04/16 06:24:22;;;;;;;10.97;7.73;;;9.50;99.90;;;;;;4213130;28;20036;-61
2021/04/16 06:26:24;;;;;;;12.87;9.27;;;9.40;99.90;;;;;;4215730;28;20036;-62
2021/04/16 06:28:26;;;;;;;11.20;7.70;;;9.30;99.90;;;;;;4206238;28;20549;-62
2021/04/16 06:30:28;;;;;;;12.40;8.00;;;9.00;99.90;;;;;;4215077;28;20081;-68
2021/04/16 06:32:29;;;;;;;11.20;7.63;;;8.80;99.90;;;;;;4214314;28;20028;-64
2021/04/16 06:34:30;;;;;;;12.70;7.93;;;8.90;99.90;;;;;;4211629;28;20093;-63
2021/04/16 06:36:31;;;;;;;13.67;7.57;;;9.10;99.90;;;;;;4213718;28;20774;-63
2021/04/16 06:38:40;;;;;;;11.77;6.60;;;9.30;99.90;;;;;;4221643;28;20035;-64
2021/04/16 06:40:45;;;;;;;10.97;6.90;;;9.40;99.90;;;;;;4213406;28;20394;-67
2021/04/16 06:42:47;;;;;;;9.30;6.67;;;9.40;99.90;;;;;;4218556;28;20097;-63
2021/04/16 06:44:48;;;;;;;8.17;5.87;;;9.90;99.90;;;;;;4214437;28;20534;-62
2021/04/16 06:46:52;;;;;;;9.37;6.83;;;10.60;99.90;;;;;;4213642;28;20032;-62
2021/04/16 06:48:58;;;;;;;10.07;6.07;;;11.30;99.80;;;;;;4214862;28;20036;-66
2021/04/16 06:51:00;;;;;;;9.40;5.67;;;11.90;96.90;;;;;;4209993;28;20084;-62
2021/04/16 06:53:27;;;;;;;12.33;7.27;;;12.10;96.10;;;;;;4210240;28;20745;-61
2021/04/16 06:55:33;;;;;;;9.37;5.40;;;12.80;92.80;;;;;;4214005;28;20036;-63
2021/04/16 06:57:53;;;;;;;7.63;4.50;;;13.00;91.60;;;;;;4205728;28;20036;-63
2021/04/16 07:00:03;;;;;;;5.55;4.38;;;12.80;85.00;;;;;;4212407;28;20545;-67
2021/04/16 07:02:11;;;;;;;10.15;5.13;;;12.60;89.30;;;;;;4213039;28;20538;-61
2021/04/16 07:04:33;;;;;;;6.30;4.83;;;12.70;90.20;;;;;;4213911;28;20024;-64
2021/04/16 07:06:34;;;;;;;5.83;4.13;;;12.50;84.80;;;;;;4205960;28;20043;-61
2021/04/16 07:08:59;;;;;;;10.53;4.77;;;12.50;89.00;;;;;;4215874;28;20043;-65
2021/04/16 07:11:02;;;;;;;7.47;4.33;;;12.60;82.30;;;;;;4213816;28;20024;-62
2021/04/16 07:13:05;;;;;;;6.30;3.77;;;12.00;86.40;;;;;;4214311;28;20044;-61
2021/04/16 07:15:14;;;;;;;6.20;3.80;;;11.80;89.20;;;;;;4213901;28;20020;-62
2021/04/16 07:17:21;;;;;;;6.93;4.13;;;11.50;87.00;;;;;;4207531;28;20085;-62
2021/04/16 07:19:26;;;;;;;6.53;4.50;;;11.10;88.60;;;;;;4214858;28;20481;-61
2021/04/16 07:21:28;;;;;;;15.90;6.13;;;10.80;88.70;;;;;;4212419;28;20024;-60
2021/04/16 07:23:30;;;;;;;12.50;6.30;;;10.40;90.80;;;;;;4206743;28;20032;-61
2021/04/16 07:25:41;;;;;;;15.60;6.60;;;9.80;91.80;;;;;;4212189;28;20129;-62
2021/04/16 07:27:48;;;;;;;16.35;6.00;;;9.50;93.60;;;;;;4206365;28;20036;-63
2021/04/16 07:29:56;;;;;;;8.77;5.17;;;9.50;94.50;;;;;;4208401;28;20035;-65
2021/04/16 07:31:58;;;;;;;6.10;4.53;;;9.10;93.80;;;;;;4214794;28;20369;-62
2021/04/16 07:34:01;;;;;;;8.70;5.07;;;8.90;95.60;;;;;;4214880;28;20032;-62
2021/04/16 07:36:19;;;;;;;9.90;4.93;;;8.90;96.60;;;;;;4210311;28;20784;-63
2021/04/16 07:38:30;;;;;;;6.40;4.73;;;9.00;95.60;;;;;;4210834;28;20032;-64
2021/04/16 07:40:40;;;;;;;7.47;5.20;;;9.00;95.70;;;;;;4214860;28;20031;-63
2021/04/16 07:42:45;;;;;;;9.77;5.27;;;9.10;93.70;;;;;;4216813;28;20035;-60
2021/04/16 07:45:16;;;;;;;6.87;5.27;;;8.60;94.90;;;;;;4214205;28;20545;-61
2021/04/16 07:47:25;;;;;;;9.73;4.77;;;8.30;95.70;;;;;;4194201;28;20042;-60
2021/04/16 07:49:31;;;;;;;8.53;4.57;;;8.20;96.60;;;;;;4205757;28;20048;-62
2021/04/16 07:51:32;;;;;;;5.63;4.30;;;8.40;97.30;;;;;;4205306;28;20066;-63
2021/04/16 07:53:41;;;;;;;12.30;4.63;;;9.00;96.90;;;;;;4223269;28;20104;-63
2021/04/16 07:55:43;;;;;;;4.93;3.93;;;9.20;94.80;;;;;;4216763;28;20444;-62
2021/04/16 07:57:53;;;;;;;7.70;4.90;;;9.20;94.90;;;;;;4207473;28;20035;-62
2021/04/16 08:00:00;;;;;;;10.63;5.20;;;9.40;94.50;;;;;;4208727;28;20573;-63
2021/04/16 08:02:19;;;;;;;5.03;3.70;;;9.60;93.90;;;;;;4222870;28;20085;-63
2021/04/16 08:04:36;;;;;;;8.83;4.00;;;9.30;92.10;;;;;;4209768;28;20040;-63
2021/04/16 08:06:43;;;;;;;13.17;4.67;;;9.10;92.50;;;;;;4221444;28;20089;-59
2021/04/16 08:08:45;;;;;;;6.83;4.63;;;9.40;94.10;;;;;;4221510;28;20035;-60
2021/04/16 08:10:51;;;;;;;4.87;3.60;;;9.90;94.00;;;;;;4220572;28;20368;-61
2021/04/16 08:13:06;;;;;;;4.90;4.10;;;9.70;90.80;;;;;;4222232;28;20040;-62
2021/04/16 08:15:14;;;;;;;6.87;3.93;;;9.50;91.10;;;;;;4226442;28;20188;-60
2021/04/16 08:17:31;;;;;;;6.97;3.93;;;9.60;90.80;;;;;;4224662;28;20101;-67
2021/04/16 08:19:37;;;;;;;4.43;3.77;;;9.50;91.00;;;;;;4226082;28;20036;-63
2021/04/16 08:21:47;;;;;;;5.47;3.70;;;9.70;91.50;;;;;;4219283;28;20081;-65
2021/04/16 08:23:51;;;;;;;4.88;3.17;;;10.00;91.10;;;;;;4209450;28;20081;-61
2021/04/16 08:25:55;;;;;;;6.40;4.13;;;9.90;84.10;;;;;;4206490;28;20036;-62
2021/04/16 08:28:09;;;;;;;4.67;3.23;;;9.40;89.00;;;;;;4208987;28;20077;-62
2021/04/16 08:30:29;;;;;;;6.83;3.40;;;9.40;88.90;;;;;;4208271;28;20508;-64
2021/04/16 08:32:36;;;;;;;;;;;9.40;90.20;;;;;;4209972;28;20077;-62
2021/04/16 08:34:42;;;;;;;6.23;4.07;;;9.50;85.80;;;;;;4207962;28;19923;-65
2021/04/16 08:36:44;;;;;;;8.07;4.70;;;9.20;88.60;;;;;;4209091;28;20969;-61
2021/04/16 08:39:07;;;;;;;8.77;3.70;;;9.40;89.50;;;;;;4207729;28;20085;-62
2021/04/16 08:41:11;;;;;;;11.53;4.60;;;9.50;86.00;;;;;;4213282;28;20044;-63
2021/04/16 08:43:48;;;;;;;5.70;3.50;;;9.60;89.60;;;;;;4207683;28;20881;-66
2021/04/16 08:45:50;;;;;;;5.87;3.80;;;9.70;86.80;;;;;;4203343;28;20102;-62
2021/04/16 08:48:01;;;;;;;4.40;3.10;;;9.80;88.20;;;;;;4205842;28;20051;-62
2021/04/16 08:50:04;;;;;;;4.90;3.20;;;9.70;86.80;;;;;;4214676;28;20044;-63
2021/04/16 08:52:16;;;;;;;5.47;3.03;;;9.60;88.20;;;;;;4218274;28;20051;-62
2021/04/16 08:54:35;;;;;;;3.97;3.10;;;9.50;88.10;;;;;;4216303;28;20434;-60
2021/04/16 08:56:50;;;;;;;3.03;2.70;;;9.30;89.50;;;;;;4208369;28;20032;-62
2021/04/16 08:58:53;;;;;;;6.03;3.37;;;9.10;90.30;;;;;;4207668;28;20024;-61
2021/04/16 09:01:00;;;;;;;8.47;4.60;;;8.80;90.70;;;;;;4214844;28;20048;-64
2021/04/16 09:03:05;;;;;;;7.03;4.50;;;8.60;91.50;;;;;;4225760;28;20024;-61
2021/04/16 09:05:12;;;;;;;7.23;3.87;;;8.40;91.70;;;;;;4224551;28;20088;-62
2021/04/16 09:07:37;;;;;;;5.37;3.37;;;8.30;91.60;;;;;;4225135;28;20057;-63
2021/04/16 09:09:45;;;;;;;5.77;3.50;;;7.90;92.00;;;;;;4217526;28;20549;-61
2021/04/16 09:11:46;;;;;;;6.30;3.43;;;7.80;93.50;;;;;;4207319;28;20547;-63
2021/04/16 09:13:50;;;;;;;7.43;3.70;;;7.60;94.30;;;;;;4207465;28;20912;-62
2021/04/16 09:15:51;;;;;;;7.33;4.00;;;7.40;94.70;;;;;;4222735;28;20081;-62
2021/04/16 09:17:52;;;;;;;7.50;4.10;;;7.40;95.60;;;;;;4224318;28;20077;-62
2021/04/16 09:19:59;;;;;;;11.73;4.27;;;7.50;96.10;;;;;;4225143;28;20065;-61
2021/04/16 09:22:06;;;;;;;7.60;4.10;;;7.60;96.70;;;;;;4220066;28;20105;-62
2021/04/16 09:24:10;;;;;;;3.13;2.77;;;7.70;96.80;;;;;;4225094;28;20073;-62
2021/04/16 09:26:32;;;;;;;3.90;2.57;;;7.80;97.00;;;;;;4220825;28;20040;-62
2021/04/16 09:28:55;;;;;;;6.30;3.50;;;7.80;97.10;;;;;;4208413;28;20080;-67
2021/04/16 09:31:03;;;;;;;5.87;2.97;;;7.90;97.50;;;;;;4207308;28;20027;-62
2021/04/16 09:33:35;;;;;;;5.90;3.50;;;7.90;98.00;;;;;;4208204;28;20028;-61
2021/04/16 09:35:47;;;;;;;5.97;3.90;;;7.70;99.90;;;;;;4191136;28;20040;-64
2021/04/16 09:38:25;;;;;;;6.03;3.33;;;7.50;99.90;;;;;;4208468;28;20802;-63
2021/04/16 09:40:30;;;;;;;5.23;3.17;;;7.30;99.90;;;;;;4208078;28;20036;-62
2021/04/16 09:42:36;;;;;;;5.60;3.23;;;7.00;99.90;;;;;;4215037;28;20077;-62
2021/04/16 09:44:45;;;;;;;5.27;3.63;;;6.80;99.90;;;;;;4223899;28;20028;-62
2021/04/16 09:46:50;;;;;;;7.67;4.33;;;6.80;99.90;;;;;;4224050;28;20468;-61
2021/04/16 09:48:52;;;;;;;9.20;4.77;;;6.70;99.90;;;;;;4215106;28;20044;-63
2021/04/16 09:50:59;;;;;;;6.40;4.30;;;6.60;99.90;;;;;;4213208;28;20036;-62
2021/04/16 09:53:12;;;;;;;4.63;3.20;;;6.50;99.90;;;;;;4222662;28;20047;-64
2021/04/16 09:55:42;;;;;;;4.67;3.37;;;6.30;99.90;;;;;;4223545;28;20060;-62
2021/04/16 09:57:44;;;;;;;4.97;3.97;;;6.20;99.90;;;;;;4220698;28;20089;-62
2021/04/16 09:59:46;;;;;;;8.77;4.20;;;6.20;99.90;;;;;;4222174;28;20035;-61
2021/04/16 10:02:21;;;;;;;5.30;3.40;;;6.30;99.90;;;;;;4215178;28;20074;-66
2021/04/16 10:04:45;;;;;;;4.10;3.70;;;6.20;99.90;;;;;;4174291;28;20040;-62
2021/04/16 10:06:46;;;;;;;4.47;4.07;;;6.30;99.90;;;;;;4224271;28;20418;-63
2021/04/16 10:09:02;;;;;;;4.23;3.40;;;6.30;99.90;;;;;;4219220;28;20073;-65
2021/04/16 10:11:05;;;;;;;5.10;3.73;;;6.40;99.90;;;;;;4223998;28;20121;-60
2021/04/16 10:13:18;;;;;;;5.50;4.70;;;6.60;99.90;;;;;;4223174;28;20887;-62
2021/04/16 10:15:24;;;;;;;5.80;3.97;;;6.80;99.90;;;;;;4219841;28;20487;-61
2021/04/16 10:17:29;;;;;;;4.40;3.80;;;6.90;99.90;;;;;;4206321;28;20036;-62
2021/04/16 10:19:39;;;;;;;4.50;3.50;;;7.00;99.90;;;;;;4213998;28;20036;-62
2021/04/16 10:21:42;;;;;;;5.40;3.85;;;7.00;99.90;;;;;;4210964;28;20061;-62
2021/04/16 10:23:49;;;;;;;6.03;3.83;;;7.00;99.90;;;;;;4205346;28;20825;-68
2021/04/16 12:40:47;;;;;;;3.60;2.03;;;8.80;90.40;;;;;;4175348;28;20090;-61
2021/04/16 12:42:49;;;;;;;2.07;1.63;;;8.90;90.30;;;;;;4175325;28;20024;-62
2021/04/16 12:44:53;;;;;;;6.03;4.30;;;9.00;90.10;;;;;;4175050;28;20099;-62
2021/04/16 12:46:59;;;;;;;7.27;3.30;;;9.00;88.60;;;;;;4174520;28;20079;-63
2021/04/16 12:49:01;;;;;;;5.60;2.60;;;9.10;89.50;;;;;;4174497;28;20078;-61
2021/04/16 12:51:02;;;;;;;4.07;1.30;;;9.00;88.10;;;;;;4173783;28;20485;-59
2021/04/16 12:53:03;;;;;;;2.97;1.80;;;9.10;88.30;;;;;;4175593;28;20430;-59
2021/04/16 12:55:05;;;;;;;1.87;1.40;;;9.10;86.70;;;;;;4174507;28;20045;-60
2021/04/16 12:57:10;;;;;;;5.03;1.60;;;9.00;86.20;;;;;;4172875;28;20103;-60
2021/04/16 12:59:14;;;;;;;2.00;1.30;;;9.10;84.90;;;;;;4173981;28;20098;-61
2021/04/16 13:01:30;;;;;;;1.97;1.50;;;9.10;85.30;;;;;;4173959;28;20033;-65
2021/04/16 13:03:35;;;;;;;2.20;1.63;;;9.10;84.50;;;;;;4174288;28;21026;-61